Time;durP1;ratioP1;P1;durP2;ratioP2;P2;SDS_P1;SDS_P2;PMS_P1;PMS_P2;Temp;Humidity;BMP_temperature;BMP_pressure;BME280_temperature;BME280_humidity;BME280_pressure;Samples;Min_cycle;Max_cycle;Signal;HPM_P1;HPM_P2
2022/08/12 00:42:56;;;;;;;;;14.67;14.33;;;;;27.05;28.19;101096.38;5034688;28;45556;-64
2022/08/12 00:45:21;;;;;;;;;15.33;13.67;;;;;26.95;28.26;101081.41;5037344;28;45462;-64
2022/08/12 00:47:48;;;;;;;;;13.33;13.33;;;;;27.02;28.10;101097.66;5019425;28;46573;-69
2022/08/12 00:50:18;;;;;;;;;10.67;9.00;;;;;27.00;28.50;101093.53;5034906;28;45397;-64
2022/08/12 00:52:45;;;;;;;;;16.00;14.00;;;;;26.34;28.20;100983.91;5035702;28;45456;-64
2022/08/12 00:55:12;;;;;;;;;14.33;14.33;;;;;26.97;28.07;101092.91;5032726;28;45768;-64
2022/08/12 00:57:46;;;;;;;;;16.00;15.00;;;;;26.86;28.28;101082.91;5038825;28;46621;-65
2022/08/12 01:00:23;;;;;;;;;13.00;13.00;;;;;26.86;28.59;101090.25;5045181;28;45774;-65
2022/08/12 01:02:52;;;;;;;;;15.00;14.33;;;;;26.78;28.06;101080.53;5037114;28;45495;-65
2022/08/12 01:13:38;;;;;;;;;12.67;12.67;;;;;26.76;28.19;101087.31;5037360;28;45439;-65
2022/08/12 01:16:06;;;;;;;;;14.00;14.00;;;;;26.71;28.43;101082.59;5037811;28;45443;-64
2022/08/12 01:18:35;;;;;;;;;15.67;15.33;;;;;26.73;28.36;101090.53;5034598;28;47016;-64
2022/08/12 01:21:42;;;;;;;;;17.33;17.00;;;;;26.19;28.28;101000.78;5036071;28;45322;-64
2022/08/12 01:24:32;;;;;;;;;10.67;10.00;;;;;26.69;28.38;101082.00;5037487;28;45334;-65
2022/08/12 01:27:02;;;;;;;;;14.33;13.00;;;;;26.66;28.29;101086.06;5032444;28;45243;-80
2022/08/12 01:29:30;;;;;;;;;15.33;15.33;;;;;26.61;28.40;101079.63;5038265;28;45896;-66
2022/08/12 01:31:57;;;;;;;;;17.33;16.33;;;;;26.61;28.58;101085.94;5034476;28;45542;-65
2022/08/12 01:34:29;;;;;;;;;15.67;15.00;;;;;26.58;28.43;101080.13;5036380;28;45605;-65
2022/08/12 01:36:58;;;;;;;;;16.67;16.00;;;;;26.57;28.59;101089.38;5036021;28;45558;-65
2022/08/12 01:39:32;;;;;;;;;14.00;13.00;;;;;26.54;28.57;101089.88;5034937;28;46434;-65
2022/08/12 01:42:03;;;;;;;;;11.67;11.67;;;;;26.51;28.65;101076.72;5036783;28;45386;-65
2022/08/12 01:44:31;;;;;;;;;13.33;12.33;;;;;26.44;28.87;101065.13;5018935;28;45721;-65
2022/08/12 01:47:10;;;;;;;;;16.67;15.67;;;;;26.48;28.87;101074.47;5036202;28;45594;-66
2022/08/12 01:50:17;;;;;;;;;17.67;14.67;;;;;26.51;28.66;101085.72;5146287;27;45445;-65
2022/08/12 01:53:01;;;;;;;;;13.00;13.00;;;;;25.93;28.63;100984.97;5124343;27;45354;-65
2022/08/12 01:55:32;;;;;;;;;14.33;14.33;;;;;26.44;28.77;101084.22;5126314;27;45547;-65
2022/08/12 01:58:13;;;;;;;;;15.33;15.33;;;;;26.44;28.44;101079.59;5119878;27;46332;-65
2022/08/12 02:00:47;;;;;;;;;5.33;5.33;;;;;26.42;29.03;101076.25;5123852;27;45880;-65
2022/08/12 02:12:31;;;;;;;;;15.00;13.00;;;;;26.23;29.05;101056.50;5128938;27;45612;-66
2022/08/12 02:15:14;;;;;;;;;14.33;14.33;;;;;26.26;29.23;101066.91;5120750;27;45538;-67
2022/08/12 02:18:11;;;;;;;;;15.00;15.00;;;;;26.25;29.37;101062.53;5127479;27;45409;-65
2022/08/12 02:20:50;;;;;;;;;10.33;10.33;;;;;26.23;29.40;101067.41;5117092;27;45463;-68
2022/08/12 02:23:18;;;;;;;;;13.00;12.00;;;;;26.21;29.17;101057.78;5129651;27;46664;-65
2022/08/12 02:25:46;;;;;;;;;14.00;14.00;;;;;26.16;29.45;101063.94;5124102;27;45466;-65
2022/08/12 02:28:12;;;;;;;;;14.33;13.33;;;;;26.03;29.46;101045.97;5132834;27;45756;-65
2022/08/12 02:30:38;;;;;;;;;14.67;14.00;;;;;26.07;29.30;101043.59;5128307;27;45314;-68
2022/08/12 02:33:05;;;;;;;;;12.67;12.67;;;;;26.08;29.44;101053.44;5124789;27;46572;-64
2022/08/12 02:35:35;;;;;;;;;14.00;14.00;;;;;26.04;29.75;101063.16;5113480;27;45553;-66
2022/08/12 02:38:04;;;;;;;;;13.67;13.67;;;;;25.98;29.54;101064.91;5119864;27;45511;-66
2022/08/12 02:40:33;;;;;;;;;16.67;15.67;;;;;25.87;29.59;101043.16;5097693;27;45446;-66
2022/08/12 02:43:21;;;;;;;;;13.00;11.33;;;;;25.78;29.67;101032.59;5126663;27;46767;-66
2022/08/12 02:45:54;;;;;;;;;13.33;13.33;;;;;25.95;29.56;101054.50;5131214;27;46261;-64
2022/08/12 02:48:29;;;;;;;;;13.67;12.33;;;;;25.95;29.49;101049.06;5132200;27;45428;-64
2022/08/12 02:50:57;;;;;;;;;14.33;14.33;;;;;25.95;29.76;101048.22;5116480;27;45489;-64
2022/08/12 02:53:24;;;;;;;;;14.00;11.67;;;;;25.85;29.82;101032.50;5125326;27;47795;-64
2022/08/12 02:55:50;;;;;;;;;12.33;11.00;;;;;25.83;29.64;101037.34;5141982;27;45595;-67
2022/08/12 02:58:17;;;;;;;;;12.33;11.00;;;;;25.88;29.85;101044.81;5113884;27;45251;-65
2022/08/12 03:00:43;;;;;;;;;15.33;12.67;;;;;25.67;30.02;101019.81;5109195;27;46516;-65
2022/08/12 03:03:11;;;;;;;;;13.67;13.67;;;;;25.82;29.98;101048.44;5114649;27;47430;-66
2022/08/12 03:05:50;;;;;;;;;16.67;15.00;;;;;25.83;29.71;101041.94;5113814;27;45452;-65
2022/08/12 03:08:22;;;;;;;;;14.00;14.00;;;;;25.82;30.06;101048.44;5115162;27;45305;-65
2022/08/12 03:10:49;;;;;;;;;13.67;13.67;;;;;25.58;29.92;101013.03;5101044;27;45481;-64
2022/08/12 03:13:18;;;;;;;;;12.67;12.67;;;;;25.78;29.81;101046.22;5105515;27;46494;-65
2022/08/12 03:15:44;;;;;;;;;14.00;14.00;;;;;25.72;30.17;101041.72;5104622;27;47060;-73
2022/08/12 03:18:16;;;;;;;;;13.00;13.00;;;;;25.63;29.87;101040.41;5105102;27;45402;-64
2022/08/12 03:20:42;;;;;;;;;16.67;16.33;;;;;25.72;30.00;101060.78;5110412;27;45514;-64
2022/08/12 03:23:13;;;;;;;;;14.00;13.33;;;;;25.71;30.22;101056.41;5108457;27;47143;-64
2022/08/12 03:25:40;;;;;;;;;15.33;15.33;;;;;25.27;30.03;100986.16;5118239;27;45374;-72
2022/08/12 03:28:09;;;;;;;;;14.33;13.33;;;;;25.69;30.25;101055.81;5108521;27;45324;-64
2022/08/12 03:30:36;;;;;;;;;17.33;17.33;;;;;25.49;30.33;101028.06;5113178;27;45627;-64
2022/08/12 03:33:03;;;;;;;;;13.33;12.33;;;;;25.56;30.29;101047.81;5101165;27;45682;-64
2022/08/12 03:35:31;;;;;;;;;16.00;14.00;;;;;25.58;30.67;101048.41;5099766;27;45417;-63
2022/08/12 03:37:58;;;;;;;;;14.67;14.33;;;;;25.58;30.67;101062.03;5111522;27;45312;-64
2022/08/12 04:02:38;;;;;;;;;14.00;14.00;;;;;25.36;31.20;101063.66;5106901;27;45161;-70
2022/08/12 04:05:06;;;;;;;;;15.67;14.33;;;;;25.32;30.36;101051.59;5113039;27;45439;-64
2022/08/12 04:07:32;;;;;;;;;15.00;12.00;;;;;25.21;30.63;101046.94;5110523;27;45556;-65
2022/08/12 04:09:58;;;;;;;;;14.67;14.67;;;;;25.22;30.90;101049.44;5101794;27;45529;-65
2022/08/12 04:15:30;;;;;;;;;15.33;14.67;;;;;25.21;30.72;101046.94;5082852;27;45595;-65
2022/08/12 04:17:57;;;;;;;;;15.33;13.33;;;;;25.08;31.43;101032.50;5106242;27;45536;-64
2022/08/12 04:20:22;;;;;;;;;17.00;16.00;;;;;24.61;30.98;100955.31;5102142;27;46403;-64
2022/08/12 04:22:48;;;;;;;;;15.67;15.67;;;;;24.97;31.24;101025.09;5117030;27;45403;-65
2022/08/12 04:25:13;;;;;;;;;14.00;13.67;;;;;25.05;31.46;101043.03;5116574;27;45412;-64
2022/08/12 04:27:43;;;;;;;;;15.00;15.00;;;;;24.49;31.15;100968.88;5112042;27;45290;-64
2022/08/12 04:30:09;;;;;;;;;15.00;14.00;;;;;24.78;31.48;101026.19;5111651;27;46823;-65
2022/08/12 04:32:35;;;;;;;;;14.33;12.33;;;;;24.82;31.49;101032.84;5112609;27;45617;-64
2022/08/12 04:35:00;;;;;;;;;19.00;15.67;;;;;24.92;31.85;101045.88;5116318;27;45594;-64
2022/08/12 04:37:26;;;;;;;;;15.00;14.00;;;;;24.84;31.73;101036.19;5109092;27;45498;-64
2022/08/12 04:39:52;;;;;;;;;16.00;16.00;;;;;24.96;31.24;101056.06;5112912;27;46438;-64
2022/08/12 04:42:19;;;;;;;;;18.33;16.67;;;;;24.89;31.80;101047.19;5108587;27;45467;-66
2022/08/12 04:44:44;;;;;;;;;16.33;15.00;;;;;24.92;31.53;101068.47;5116310;27;46908;-64
2022/08/12 04:47:11;;;;;;;;;16.67;14.00;;;;;24.89;31.76;101060.78;5108652;27;45469;-65
2022/08/12 04:49:38;;;;;;;;;13.33;13.33;;;;;24.86;32.06;101061.25;5103766;27;46168;-65
2022/08/12 04:52:04;;;;;;;;;11.67;11.67;;;;;24.87;31.77;101065.63;5114068;27;45241;-65
2022/08/12 04:54:32;;;;;;;;;13.67;13.67;;;;;24.73;31.91;101045.09;5108200;27;46140;-64
2022/08/12 04:56:58;;;;;;;;;13.33;13.33;;;;;24.21;31.96;100974.03;5116795;27;45397;-63
2022/08/12 04:59:23;;;;;;;;;12.67;12.67;;;;;24.75;32.52;101068.28;5114184;27;45530;-64
2022/08/12 05:01:51;;;;;;;;;14.00;14.00;;;;;24.73;32.15;101061.41;5110541;27;45510;-68
2022/08/12 05:04:18;;;;;;;;;14.67;13.67;;;;;24.66;32.06;101055.25;5111638;27;45716;-66
2022/08/12 05:06:44;;;;;;;;;15.33;14.33;;;;;24.43;32.45;101035.03;5111097;27;45405;-65
2022/08/12 05:09:09;;;;;;;;;15.67;15.67;;;;;24.13;32.39;100982.50;5115661;27;45519;-65
2022/08/12 05:11:35;;;;;;;;;13.67;13.67;;;;;24.50;32.75;101041.22;5118072;27;45388;-64
2022/08/12 05:14:01;;;;;;;;;16.00;12.67;;;;;24.53;32.63;101053.53;5112823;27;46839;-65
2022/08/12 05:16:26;;;;;;;;;17.67;16.67;;;;;24.46;32.77;101045.47;5112930;27;45571;-72
2022/08/12 05:18:52;;;;;;;;;12.33;11.33;;;;;24.54;32.54;101064.16;5106172;27;45481;-66
2022/08/12 05:21:17;;;;;;;;;13.33;12.67;;;;;24.60;32.23;101072.44;5111412;27;46805;-65
2022/08/12 05:23:43;;;;;;;;;15.33;13.67;;;;;24.49;32.20;101055.88;5113728;27;46109;-65
2022/08/12 05:26:09;;;;;;;;;13.67;13.33;;;;;24.71;32.96;101080.69;5101996;27;45476;-65
2022/08/12 05:28:34;;;;;;;;;11.67;11.67;;;;;24.71;32.24;101085.28;5109040;27;45401;-68
2022/08/12 05:31:03;;;;;;;;;14.00;13.33;;;;;24.72;32.23;101084.22;5109236;27;45398;-70
2022/08/12 05:33:39;;;;;;;;;16.33;14.33;;;;;24.33;32.89;101012.16;5098057;27;45815;-66
2022/08/12 05:36:07;;;;;;;;;15.33;13.33;;;;;24.75;32.35;101081.06;5105855;27;45661;-65
2022/08/12 05:41:19;;;;;;;;;11.33;11.33;;;;;24.79;32.42;101082.25;5106566;27;45420;-66
2022/08/12 05:44:06;;;;;;;;;14.33;14.00;;;;;24.80;32.18;101078.47;5107989;27;45708;-65
2022/08/12 05:46:32;;;;;;;;;14.33;11.33;;;;;24.82;32.15;101081.78;5110709;27;45406;-65
2022/08/12 05:49:02;;;;;;;;;15.67;15.33;;;;;24.82;32.27;101081.78;5109326;27;45591;-66
2022/08/12 05:51:31;;;;;;;;;15.67;13.00;;;;;24.83;31.88;101078.03;5099723;27;45402;-69
2022/08/12 05:53:58;;;;;;;;;11.33;11.33;;;;;24.85;31.93;101079.47;5097368;27;46682;-64
2022/08/12 05:56:33;;;;;;;;;18.67;15.67;;;;;24.86;32.06;101083.84;5100047;27;45591;-64
2022/08/12 05:59:01;;;;;;;;;16.33;16.33;;;;;24.81;32.45;101075.50;5100707;27;45444;-64
2022/08/12 06:01:28;;;;;;;;;13.67;13.67;;;;;24.90;32.17;101086.09;5106666;27;46481;-64
2022/08/12 06:03:54;;;;;;;;;16.00;15.00;;;;;24.94;31.94;101069.06;5104806;27;46483;-64
2022/08/12 06:06:20;;;;;;;;;18.33;15.33;;;;;24.99;31.66;101091.00;5112227;27;45347;-64
2022/08/12 06:08:48;;;;;;;;;19.67;17.67;;;;;25.07;31.90;101074.38;5103745;27;46489;-66
2022/08/12 06:11:14;;;;;;;;;17.50;14.00;;;;;25.11;32.02;101080.16;5101061;27;45366;-65
2022/08/12 06:13:42;;;;;;;;;13.33;13.00;;;;;25.10;31.72;101073.06;5107335;27;46461;-65
2022/08/12 06:16:10;;;;;;;;;16.00;14.33;;;;;25.08;32.03;101073.31;5108451;27;45496;-81
2022/08/12 06:18:39;;;;;;;;;15.33;13.00;;;;;25.11;31.56;101075.56;5116634;27;45447;-66
2022/08/12 06:21:16;;;;;;;;;15.00;15.00;;;;;25.01;31.24;101058.94;5117467;27;45434;-64
2022/08/12 06:23:44;;;;;;;;;13.67;12.33;;;;;25.07;31.70;101051.78;5111301;27;48455;-65
2022/08/12 06:26:11;;;;;;;;;13.00;13.00;;;;;25.43;31.17;101083.47;5109474;27;45455;-64
2022/08/12 06:28:44;;;;;;;;;15.33;13.00;;;;;26.04;30.07;101071.34;5114671;27;45253;-66
2022/08/12 06:31:15;;;;;;;;;13.00;13.00;;;;;26.78;29.43;101069.63;5108425;27;45296;-65
2022/08/12 06:33:43;;;;;;;;;14.00;14.00;;;;;27.57;27.84;101078.72;5106442;27;46354;-65
2022/08/12 06:36:12;;;;;;;;;12.67;12.67;;;;;27.91;27.17;101066.97;5111428;27;45536;-68
2022/08/12 06:38:40;;;;;;;;;15.33;14.00;;;;;28.02;26.81;100997.69;5109045;27;45450;-72
2022/08/12 06:43:52;;;;;;;;;13.67;13.67;;;;;30.21;23.94;101069.09;5101681;27;45497;-65
2022/08/12 06:46:20;;;;;;;;;11.33;11.33;;;;;31.11;23.13;101084.25;5104938;27;45521;-65
2022/08/12 06:48:47;;;;;;;;;14.33;13.33;;;;;31.83;21.96;101067.78;5108750;27;45608;-65
2022/08/12 06:51:12;;;;;;;;;18.00;17.00;;;;;32.60;21.70;101071.97;5105210;27;45486;-66
2022/08/12 06:53:38;;;;;;;;;19.33;18.67;;;;;33.23;20.38;101072.97;5109218;27;46287;-69
2022/08/12 06:56:03;;;;;;;;;37.33;31.67;;;;;33.57;19.48;101069.41;5100340;27;45174;-67
2022/08/12 06:58:31;;;;;;;;;15.33;15.33;;;;;33.70;19.54;101007.25;5110883;27;45420;-65
2022/08/12 07:00:58;;;;;;;;;14.00;12.00;;;;;34.39;18.41;101070.22;5120832;27;45473;-64
2022/08/12 07:03:28;;;;;;;;;7.67;7.67;;;;;34.32;17.87;101028.34;5112687;27;46494;-65
2022/08/12 07:05:56;;;;;;;;;11.00;11.00;;;;;34.61;17.74;101068.84;5110428;27;45167;-65
2022/08/12 07:08:27;;;;;;;;;11.00;11.00;;;;;34.75;17.74;101023.63;5114171;27;45581;-66
2022/08/12 07:11:00;;;;;;;;;10.00;10.00;;;;;34.90;17.71;101019.03;5115449;27;45412;-66
2022/08/12 07:13:43;;;;;;;;;10.33;8.33;;;;;35.75;16.90;101074.00;5105009;27;45660;-66
2022/08/12 07:16:20;;;;;;;;;12.33;10.00;;;;;36.21;15.85;101070.34;5112747;27;45678;-66
2022/08/12 07:18:49;;;;;;;;;10.33;10.33;;;;;35.91;16.19;100942.56;5119418;27;45281;-66
2022/08/12 07:21:15;;;;;;;;;12.67;11.00;;;;;37.17;15.48;101068.25;5098606;27;45187;-66
2022/08/12 07:23:41;;;;;;;;;12.67;11.33;;;;;37.48;15.73;101053.66;5099549;27;45871;-66
2022/08/12 07:26:09;;;;;;;;;8.33;8.33;;;;;38.05;14.67;101062.13;5099297;27;45764;-65
2022/08/12 07:28:38;;;;;;;;;9.33;9.33;;;;;37.92;14.39;100985.31;5105447;27;45411;-66
2022/08/12 07:31:07;;;;;;;;;9.67;9.00;;;;;38.62;14.07;101062.91;5116100;27;45572;-66
2022/08/12 07:33:37;;;;;;;;;9.33;8.33;;;;;38.58;13.75;101009.16;5099575;27;46302;-66
2022/08/12 07:36:05;;;;;;;;;9.67;9.33;;;;;38.87;13.77;101044.69;5099490;27;45312;-66
2022/08/12 07:38:42;;;;;;;;;12.00;12.00;;;;;39.44;13.35;101058.34;5099781;27;45752;-65
2022/08/12 07:41:19;;;;;;;;;10.67;10.00;;;;;39.83;13.04;101062.03;5114929;27;45478;-67
2022/08/12 07:43:55;;;;;;;;;10.67;10.67;;;;;40.05;12.93;101047.91;5103610;27;45643;-67
2022/08/12 07:46:24;;;;;;;;;12.00;10.33;;;;;40.36;13.03;101055.09;5106200;27;45394;-66
2022/08/12 07:48:52;;;;;;;;;9.00;9.00;;;;;40.57;12.44;101055.94;5110809;27;45183;-67
2022/08/12 07:51:19;;;;;;;;;8.33;8.33;;;;;40.42;12.63;101059.31;5101326;27;45563;-67
2022/08/12 07:53:45;;;;;;;;;8.67;8.67;;;;;40.54;12.89;101053.84;5104317;27;45800;-65
2022/08/12 07:56:11;;;;;;;;;8.67;8.67;;;;;40.41;13.01;101049.34;5102608;27;45304;-66
2022/08/12 07:58:39;;;;;;;;;11.33;10.00;;;;;40.74;12.49;101053.03;5098971;27;45440;-66
2022/08/12 08:01:11;;;;;;;;;8.00;8.00;;;;;40.67;11.55;101058.34;5117066;27;45373;-67
2022/08/12 08:04:54;;;;;;;;;8.67;7.67;;;;;40.14;12.55;101057.00;5118006;27;46203;-66
2022/08/12 08:06:30;;;;;;;;;12.33;12.33;;;;;40.21;12.43;101058.44;5106808;27;45471;-66
2022/08/12 08:09:00;;;;;;;;;9.67;8.00;;;;;40.44;12.38;101057.00;5102682;27;45444;-66
2022/08/12 08:14:10;;;;;;;;;9.33;8.00;;;;;40.90;12.31;101052.44;5113750;27;45472;-66
2022/08/12 08:16:41;;;;;;;;;8.33;8.33;;;;;40.98;12.68;101043.19;5109393;27;45510;-66
2022/08/12 08:19:15;;;;;;;;;7.00;7.00;;;;;41.11;12.34;101018.94;5112770;27;46121;-66
2022/08/12 08:21:41;;;;;;;;;8.00;8.00;;;;;41.13;11.99;101006.28;5112723;27;45855;-66
2022/08/12 08:24:13;;;;;;;;;10.00;10.00;;;;;41.62;11.85;101053.84;5108916;27;47004;-66
2022/08/12 08:26:49;;;;;;;;;10.00;10.00;;;;;41.70;12.00;101077.31;5099821;27;45421;-65
2022/08/12 08:29:15;;;;;;;;;12.67;11.67;;;;;41.70;11.80;101075.31;5103074;27;45360;-66
2022/08/12 08:31:44;;;;;;;;;9.33;9.33;;;;;41.82;12.28;101058.56;5097376;27;45313;-66
2022/08/12 08:34:11;;;;;;;;;6.00;6.00;;;;;41.87;11.93;101069.53;5107637;27;46517;-66
2022/08/12 08:36:38;;;;;;;;;7.33;7.33;;;;;41.83;11.98;101063.00;5119042;27;45248;-66
2022/08/12 08:39:03;;;;;;;;;9.67;8.67;;;;;41.99;11.73;101060.31;5118959;27;45481;-66
2022/08/12 08:44:12;;;;;;;;;11.00;11.00;;;;;42.04;11.67;101053.69;5118324;27;45460;-66
2022/08/12 08:46:39;;;;;;;;;8.33;8.33;;;;;41.73;11.96;100988.06;5115711;27;45649;-67
2022/08/12 08:49:05;;;;;;;;;12.00;9.00;;;;;42.22;11.76;101046.72;5104244;27;45524;-66
2022/08/12 08:51:30;;;;;;;;;8.67;8.33;;;;;42.31;11.31;101055.81;5109983;27;45372;-65
2022/08/12 08:53:56;;;;;;;;;9.00;8.00;;;;;42.38;11.68;101064.41;5106529;27;46132;-66
2022/08/12 08:56:21;;;;;;;;;10.33;10.00;;;;;42.30;11.59;101050.56;5114737;27;45419;-66
2022/08/12 08:58:48;;;;;;;;;10.00;10.00;;;;;42.27;11.28;101049.31;5112195;27;45642;-65
2022/08/12 09:01:19;;;;;;;;;13.00;10.00;;;;;42.05;11.77;101046.94;5102622;27;45500;-74
2022/08/12 09:03:45;;;;;;;;;11.67;8.33;;;;;41.51;11.68;101038.75;5113610;27;46841;-65
2022/08/12 09:06:11;;;;;;;;;8.33;7.33;;;;;41.09;12.19;101055.56;5113428;27;45334;-65
2022/08/12 09:08:37;;;;;;;;;10.00;10.00;;;;;41.22;12.17;101065.59;5109372;27;45365;-67
2022/08/12 09:13:26;;;;;;;;;9.33;9.33;;;;;41.43;11.62;101061.97;5103197;27;45482;-64
2022/08/12 09:13:47;;;;;;;;;8.00;8.00;;;;;41.62;12.22;101056.66;5098984;27;45329;-64
2022/08/12 09:16:13;;;;;;;;;6.33;6.33;;;;;42.18;11.72;101055.00;5098028;27;45176;-64
2022/08/12 09:18:38;;;;;;;;;10.00;9.33;;;;;42.74;11.69;101045.97;5118217;27;45312;-64
2022/08/12 09:21:04;;;;;;;;;8.67;8.33;;;;;43.40;10.94;101026.69;5118771;27;45343;-65
2022/08/12 09:23:29;;;;;;;;;10.33;9.33;;;;;43.92;10.02;101045.25;5111013;27;47949;-66
2022/08/12 09:25:54;;;;;;;;;9.00;9.00;;;;;44.33;9.81;101042.22;5117500;27;45211;-65
2022/08/12 09:28:24;;;;;;;;;8.67;8.67;;;;;45.01;9.14;101050.13;5117633;27;45478;-64
2022/08/12 09:30:52;;;;;;;;;8.67;8.67;;;;;45.54;9.18;101037.13;5118673;27;45332;-66
2022/08/12 09:33:18;;;;;;;;;8.33;8.33;;;;;45.96;9.10;101037.03;5116650;27;47872;-66
2022/08/12 09:35:44;;;;;;;;;8.67;8.67;;;;;46.85;8.93;101037.53;5117805;27;45222;-65
2022/08/12 09:38:16;;;;;;;;;9.67;8.33;;;;;47.50;8.08;101042.72;5114703;27;45245;-65
2022/08/12 09:40:42;;;;;;;;;7.00;7.00;;;;;47.50;8.20;101031.44;5118366;27;45373;-65
2022/08/12 09:45:52;;;;;;;;;6.00;6.00;;;;;48.00;8.22;101031.84;5101523;27;45369;-66
2022/08/12 09:48:20;;;;;;;;;9.33;9.33;;;;;47.75;8.38;101032.44;5117981;27;45382;-63
2022/08/12 09:50:48;;;;;;;;;5.67;5.67;;;;;47.59;8.47;101040.34;5114915;27;45471;-63
2022/08/12 09:53:16;;;;;;;;;10.00;10.00;;;;;48.02;7.86;101026.63;5103401;27;46420;-63
2022/08/12 09:55:46;;;;;;;;;7.00;7.00;;;;;48.29;8.23;101022.41;5097061;27;45466;-63
2022/08/12 09:58:15;;;;;;;;;7.67;7.67;;;;;48.33;8.04;101022.41;5115477;27;45292;-64
2022/08/12 10:00:45;;;;;;;;;5.33;4.33;;;;;48.28;7.55;101019.97;5114586;27;45519;-66
2022/08/12 10:03:12;;;;;;;;;5.33;5.33;;;;;48.66;7.34;101012.88;5103145;27;46045;-65
2022/08/12 10:05:43;;;;;;;;;7.33;7.33;;;;;48.77;7.65;101019.41;5112955;27;45402;-65
2022/08/12 10:08:12;;;;;;;;;7.00;7.00;;;;;48.08;7.80;101017.41;5096976;27;45191;-65
2022/08/12 10:13:40;;;;;;;;;8.00;8.00;;;;;46.83;8.42;101006.94;5102746;27;45369;-65
2022/08/12 10:13:40;;;;;;;;;4.67;4.67;;;;;44.71;9.47;100923.66;5121107;27;46196;-65
2022/08/12 10:16:27;;;;;;;;;5.67;5.67;;;;;43.69;10.29;101002.25;5106935;27;45275;-66
2022/08/12 10:19:01;;;;;;;;;6.33;6.33;;;;;42.49;10.96;100951.00;5099275;27;45287;-66
2022/08/12 10:21:26;;;;;;;;;7.00;7.00;;;;;41.60;11.52;101003.16;5100918;27;45393;-65
2022/08/12 10:23:53;;;;;;;;;6.67;6.67;;;;;40.81;12.11;100998.69;5100479;27;46491;-67
2022/08/12 10:31:52;;;;;;;;;11.67;11.00;;;;;38.41;13.57;100983.31;5100596;27;45362;-64
2022/08/12 10:34:23;;;;;;;;;6.33;6.33;;;;;37.87;13.87;100975.19;5100903;27;45440;-64
2022/08/12 10:36:52;;;;;;;;;10.00;9.00;;;;;37.42;14.29;100972.50;5100067;27;45523;-64
2022/08/12 10:39:18;;;;;;;;;10.00;10.00;;;;;36.00;14.78;100848.56;5100727;27;45344;-63
2022/08/12 10:44:28;;;;;;;;;7.00;7.00;;;;;35.31;15.74;100974.94;5100457;27;45781;-64
2022/08/12 10:46:54;;;;;;;;;4.67;4.67;;;;;34.71;15.78;100922.34;5103297;27;45518;-62
2022/08/12 10:49:30;;;;;;;;;7.67;7.67;;;;;34.87;15.65;100975.44;5100380;27;45457;-63
2022/08/12 10:51:56;;;;;;;;;6.00;6.00;;;;;34.45;16.72;100932.97;5101688;27;45207;-63
2022/08/12 10:54:26;;;;;;;;;7.33;6.00;;;;;34.61;16.44;100980.47;5120648;27;45751;-64
2022/08/12 10:56:52;;;;;;;;;9.33;8.33;;;;;34.40;16.74;100966.16;5120462;27;45468;-63
2022/08/12 10:59:20;;;;;;;;;7.00;7.00;;;;;34.39;16.97;100972.78;5112721;27;45449;-63
2022/08/12 11:01:49;;;;;;;;;9.00;7.00;;;;;34.09;16.73;100951.94;5113245;27;45370;-63
2022/08/12 11:04:15;;;;;;;;;6.33;6.33;;;;;34.11;17.06;100969.84;5107120;27;45404;-64
2022/08/12 11:06:49;;;;;;;;;6.67;6.67;;;;;34.01;16.84;100967.19;5114554;27;45393;-64
2022/08/12 11:09:36;;;;;;;;;7.00;7.00;;;;;33.63;17.16;100937.84;5119513;27;45430;-63
2022/08/12 11:12:05;;;;;;;;;7.00;7.00;;;;;33.62;17.37;100947.22;5120584;27;45519;-64
2022/08/12 11:14:32;;;;;;;;;7.00;6.00;;;;;33.54;17.36;100952.28;5118265;27;46094;-62
2022/08/12 11:17:06;;;;;;;;;6.00;6.00;;;;;33.47;17.07;100938.03;5119872;27;45369;-64
2022/08/12 11:19:36;;;;;;;;;7.33;7.00;;;;;32.78;17.16;100841.94;5112758;27;45594;-62
2022/08/12 11:22:02;;;;;;;;;7.33;7.33;;;;;33.21;17.20;100934.66;5099314;27;45515;-63
2022/08/12 11:24:28;;;;;;;;;6.00;6.00;;;;;33.16;17.73;100939.41;5107565;27;46733;-64
2022/08/12 11:26:54;;;;;;;;;7.33;6.00;;;;;33.03;17.58;100929.03;5100594;27;45488;-64
2022/08/12 11:29:22;;;;;;;;;6.67;6.67;;;;;32.98;17.29;100925.22;5113386;27;45401;-62
2022/08/12 11:31:48;;;;;;;;;6.00;6.00;;;;;33.03;17.46;100916.09;5109345;27;45466;-63
2022/08/12 11:34:15;;;;;;;;;6.00;6.00;;;;;33.05;17.57;100918.59;5118223;27;45568;-63
2022/08/12 11:36:49;;;;;;;;;6.00;6.00;;;;;32.91;18.13;100894.47;5103458;27;45399;-69
2022/08/12 11:39:14;;;;;;;;;9.67;8.67;;;;;32.68;17.61;100853.88;5107392;27;45490;-62
2022/08/12 11:41:40;;;;;;;;;8.00;6.00;;;;;33.01;17.83;100917.50;5110889;27;45452;-64
2022/08/12 11:44:05;;;;;;;;;6.00;6.00;;;;;32.88;18.73;100902.50;5119920;27;47353;-63
2022/08/12 11:46:36;;;;;;;;;6.67;6.67;;;;;32.86;18.50;100922.06;5119927;27;45439;-63
2022/08/12 11:49:03;;;;;;;;;8.33;8.33;;;;;32.90;18.36;100922.28;5117466;27;45496;-64
2022/08/12 11:51:29;;;;;;;;;6.00;6.00;;;;;32.80;18.39;100889.31;5119161;27;45502;-63
2022/08/12 11:53:54;;;;;;;;;8.67;6.00;;;;;32.87;17.58;100909.09;5118602;27;46430;-64
2022/08/12 11:56:19;;;;;;;;;7.00;7.00;;;;;32.78;17.91;100891.50;5119849;27;45492;-64
2022/08/12 11:58:45;;;;;;;;;7.00;6.00;;;;;32.37;17.52;100820.28;5118549;27;58691;-62
2022/08/12 12:01:10;;;;;;;;;6.00;5.00;;;;;32.37;17.75;100818.34;5118639;27;45271;-63
2022/08/12 12:03:35;;;;;;;;;7.00;7.00;;;;;32.34;17.67;100818.94;5119618;27;46493;-64
2022/08/12 12:06:01;;;;;;;;;6.00;3.33;;;;;32.84;17.40;100912.41;5119942;27;45421;-64
2022/08/12 12:08:26;;;;;;;;;7.00;7.00;;;;;32.75;17.23;100900.34;5118360;27;45418;-63
2022/08/12 12:10:52;;;;;;;;;7.67;7.67;;;;;32.70;17.93;100887.47;5119885;27;45543;-64
2022/08/12 12:13:19;;;;;;;;;8.00;7.33;;;;;32.75;18.72;100895.66;5119665;27;46761;-63
2022/08/12 12:15:46;;;;;;;;;6.33;6.33;;;;;32.68;17.78;100882.25;5119719;27;45222;-63
2022/08/12 12:18:24;;;;;;;;;5.00;5.00;;;;;32.67;17.33;100879.78;5118007;27;45301;-62
2022/08/12 12:20:54;;;;;;;;;7.67;7.00;;;;;32.49;18.63;100852.94;5119962;27;45372;-64
2022/08/12 12:23:19;;;;;;;;;5.00;5.00;;;;;32.32;17.87;100836.84;5118006;27;46536;-63
2022/08/12 12:25:45;;;;;;;;;6.00;6.00;;;;;32.56;17.81;100880.97;5119122;27;45205;-64
2022/08/12 12:28:12;;;;;;;;;8.33;7.33;;;;;32.21;17.75;100811.28;5119431;27;45183;-62
2022/08/12 12:30:38;;;;;;;;;8.00;6.33;;;;;32.25;17.19;100815.13;5119539;27;45325;-64
2022/08/12 12:33:04;;;;;;;;;7.00;6.00;;;;;32.61;18.20;100872.66;5116940;27;46438;-63
2022/08/12 12:35:30;;;;;;;;;7.00;7.00;;;;;32.66;18.11;100873.44;5117777;27;46241;-63
2022/08/12 12:38:01;;;;;;;;;6.00;6.00;;;;;32.57;17.52;100857.81;5113297;27;45420;-62
2022/08/12 12:40:28;;;;;;;;;6.00;6.00;;;;;32.38;18.05;100805.41;5100794;27;45455;-73
2022/08/12 12:42:54;;;;;;;;;8.00;6.33;;;;;32.83;17.78;100873.03;5109787;27;47001;-65
2022/08/12 12:45:20;;;;;;;;;9.00;7.00;;;;;32.81;17.33;100867.00;5109928;27;45668;-65
2022/08/12 12:47:58;;;;;;;;;7.67;7.33;;;;;32.85;17.67;100870.03;5107798;27;45436;-66
2022/08/12 12:50:26;;;;;;;;;6.33;6.33;;;;;32.87;18.60;100870.56;5113786;27;45589;-65
2022/08/12 12:52:53;;;;;;;;;7.00;7.00;;;;;32.89;17.98;100855.38;5098796;27;47551;-64
2022/08/12 12:55:19;;;;;;;;;10.33;9.00;;;;;32.47;17.73;100781.69;5117607;27;45421;-64
2022/08/12 12:57:45;;;;;;;;;7.67;7.67;;;;;32.73;18.00;100840.06;5103878;27;45398;-65
2022/08/12 13:00:15;;;;;;;;;7.00;7.00;;;;;32.64;17.38;100831.63;5098666;27;45547;-65
2022/08/12 13:02:51;;;;;;;;;8.00;7.00;;;;;32.84;18.59;100851.81;5096845;27;47597;-65
2022/08/12 13:05:19;;;;;;;;;9.33;6.67;;;;;32.79;17.93;100830.66;5097968;27;45355;-63
2022/08/12 13:07:44;;;;;;;;;7.00;7.00;;;;;32.78;18.08;100831.75;5096005;27;47248;-65
2022/08/12 13:10:10;;;;;;;;;8.33;8.33;;;;;32.88;18.01;100841.91;5112646;27;45268;-65
2022/08/12 13:12:35;;;;;;;;;7.33;6.00;;;;;32.79;17.75;100827.88;5118587;27;45886;-65